Time;durP1;ratioP1;P1;durP2;ratioP2;P2;SDS_P1;SDS_P2;PMS_P1;PMS_P2;Temp;Humidity;BMP_temperature;BMP_pressure;BME280_temperature;BME280_humidity;BME280_pressure;Samples;Min_cycle;Max_cycle;Signal;HPM_P1;HPM_P2
2022/06/30 00:00:59;;;;;;;0.07;0.07;;;17.50;99.90;;;;;;5054211;28;20047;-85
2022/06/30 00:03:25;;;;;;;0.77;0.50;;;17.50;99.90;;;;;;5055291;28;20241;-87
2022/06/30 00:05:51;;;;;;;0.00;0.00;;;17.80;99.90;;;;;;5052537;28;20121;-85
2022/06/30 00:08:16;;;;;;;0.40;0.40;;;17.90;99.90;;;;;;5055521;28;20100;-86
2022/06/30 00:10:43;;;;;;;0.00;0.00;;;17.90;99.90;;;;;;5057239;28;20028;-86
2022/06/30 00:13:09;;;;;;;0.08;0.08;;;17.80;99.90;;;;;;5053899;28;20078;-85
2022/06/30 00:15:37;;;;;;;0.10;0.10;;;17.80;99.90;;;;;;5054488;28;20036;-86
2022/06/30 00:18:03;;;;;;;0.10;0.10;;;17.70;99.90;;;;;;5053673;28;20304;-87
2022/06/30 00:20:29;;;;;;;0.55;0.55;;;17.60;99.90;;;;;;5053446;28;20036;-85
2022/06/30 00:22:54;;;;;;;0.37;0.20;;;17.80;99.90;;;;;;5054453;28;20032;-87
2022/06/30 00:25:20;;;;;;;0.23;0.23;;;17.80;99.90;;;;;;5055038;28;20123;-86
2022/06/30 00:27:46;;;;;;;0.20;0.10;;;17.60;99.90;;;;;;5054289;28;20300;-86
2022/06/30 00:30:12;;;;;;;0.20;0.10;;;17.60;99.90;;;;;;5052788;28;20124;-87
2022/06/30 00:32:37;;;;;;;0.00;0.00;;;17.30;99.90;;;;;;5053853;28;20024;-86
2022/06/30 00:35:03;;;;;;;1.50;0.20;;;17.30;99.90;;;;;;5054376;28;20289;-87
2022/06/30 00:37:29;;;;;;;0.27;0.27;;;17.40;99.90;;;;;;5053040;28;20035;-87
2022/06/30 00:39:55;;;;;;;1.77;0.13;;;17.20;99.90;;;;;;5051890;28;20048;-87
2022/06/30 00:42:21;;;;;;;0.10;0.10;;;17.00;99.90;;;;;;5053783;28;20024;-88
2022/06/30 00:44:47;;;;;;;0.35;0.30;;;17.00;99.90;;;;;;5053491;28;20036;-87
2022/06/30 00:47:13;;;;;;;0.10;0.10;;;17.20;99.90;;;;;;5054220;28;20032;-87
2022/06/30 00:49:39;;;;;;;0.00;0.00;;;17.20;99.90;;;;;;5054203;28;20503;-87
2022/06/30 00:52:09;;;;;;;0.40;0.40;;;17.20;99.90;;;;;;5053518;28;20060;-86
2022/06/30 00:54:38;;;;;;;0.10;0.10;;;17.20;99.90;;;;;;5053616;28;20539;-84
2022/06/30 00:57:05;;;;;;;0.10;0.10;;;17.30;99.90;;;;;;5052566;28;20037;-83
2022/06/30 00:59:33;;;;;;;0.80;0.55;;;17.50;99.90;;;;;;5067625;28;20051;-76
2022/06/30 01:02:01;;;;;;;0.20;0.20;;;17.30;99.90;;;;;;5085454;28;20025;-77
2022/06/30 01:04:29;;;;;;;0.15;0.15;;;17.20;99.90;;;;;;5056256;28;20518;-77
2022/06/30 01:06:57;;;;;;;0.10;0.10;;;17.20;99.90;;;;;;5053661;28;20097;-76
2022/06/30 01:14:54;;;;;;;0.65;0.45;;;17.20;99.90;;;;;;5052648;28;20036;-76
2022/06/30 01:17:20;;;;;;;0.20;0.20;;;17.40;99.90;;;;;;5058442;28;20478;-76
2022/06/30 01:19:56;;;;;;;0.37;0.37;;;17.30;99.90;;;;;;5054824;28;20139;-76
2022/06/30 01:22:22;;;;;;;;;;;17.40;99.90;;;;;;5052738;28;20761;-76
2022/06/30 01:24:49;;;;;;;0.10;0.10;;;17.40;99.90;;;;;;5054268;28;19919;-75
2022/06/30 01:27:15;;;;;;;0.10;0.10;;;17.40;99.90;;;;;;5052037;28;20059;-75
2022/06/30 01:29:41;;;;;;;0.20;0.20;;;17.40;99.90;;;;;;5052965;28;20043;-76
2022/06/30 01:32:07;;;;;;;0.20;0.20;;;17.20;99.90;;;;;;5052462;28;20025;-76
2022/06/30 01:34:32;;;;;;;0.00;0.00;;;17.20;99.90;;;;;;5053353;28;20106;-76
2022/06/30 01:36:59;;;;;;;0.10;0.10;;;17.20;99.90;;;;;;5053932;28;20875;-76
2022/06/30 01:39:25;;;;;;;;;;;17.00;99.90;;;;;;5053016;28;20024;-75
2022/06/30 01:41:51;;;;;;;0.07;0.00;;;17.20;99.90;;;;;;5051980;28;20409;-75
2022/06/30 01:44:16;;;;;;;0.10;0.10;;;17.20;99.90;;;;;;5051820;28;22601;-75
2022/06/30 01:46:49;;;;;;;0.10;0.10;;;17.10;99.90;;;;;;5051162;28;20028;-75
2022/06/30 01:49:16;;;;;;;0.10;0.10;;;17.00;99.90;;;;;;5051735;28;20111;-74
2022/06/30 01:51:42;;;;;;;0.10;0.10;;;17.20;99.90;;;;;;5053326;28;20530;-75
2022/06/30 01:54:08;;;;;;;0.00;0.00;;;17.10;99.90;;;;;;5050355;28;20037;-75
2022/06/30 01:56:38;;;;;;;0.15;0.15;;;17.10;99.90;;;;;;5050057;28;20403;-75
2022/06/30 01:59:04;;;;;;;0.00;0.00;;;16.90;99.90;;;;;;5052493;28;20032;-75
2022/06/30 02:01:30;;;;;;;0.00;0.00;;;16.80;99.90;;;;;;5051930;28;20106;-75
2022/06/30 02:04:46;;;;;;;0.00;0.00;;;17.10;99.90;;;;;;5056355;28;20036;-75
2022/06/30 02:06:42;;;;;;;0.10;0.10;;;17.00;99.90;;;;;;5051985;28;20056;-76
2022/06/30 02:09:08;;;;;;;0.10;0.10;;;17.00;99.90;;;;;;5045492;28;20037;-75
2022/06/30 02:11:34;;;;;;;0.10;0.10;;;17.20;99.90;;;;;;5051162;28;20032;-75
2022/06/30 02:14:00;;;;;;;0.60;0.30;;;17.10;99.90;;;;;;5050716;28;20025;-75
2022/06/30 02:16:25;;;;;;;0.20;0.20;;;17.00;99.90;;;;;;5050503;28;20124;-76
2022/06/30 02:18:52;;;;;;;0.00;0.00;;;17.00;99.90;;;;;;5051723;28;20065;-76
2022/06/30 02:21:18;;;;;;;0.00;0.00;;;17.20;99.90;;;;;;5050770;28;20044;-76
2022/06/30 02:23:44;;;;;;;0.20;0.20;;;17.30;99.90;;;;;;5054862;28;20110;-76
2022/06/30 02:26:10;;;;;;;0.68;0.15;;;17.30;99.90;;;;;;5050261;28;20059;-76
2022/06/30 02:28:36;;;;;;;1.70;0.73;;;17.40;99.90;;;;;;5053986;28;20523;-76
2022/06/30 02:31:01;;;;;;;3.47;1.33;;;17.30;99.90;;;;;;5053640;28;20035;-75
2022/06/30 02:33:27;;;;;;;0.10;0.10;;;17.20;99.90;;;;;;5054221;28;20139;-75
2022/06/30 02:35:53;;;;;;;0.07;0.07;;;17.30;99.90;;;;;;5054549;28;20020;-75
2022/06/30 02:38:18;;;;;;;0.10;0.10;;;17.40;99.90;;;;;;5053931;28;20039;-75
2022/06/30 02:40:44;;;;;;;0.23;0.23;;;17.40;99.90;;;;;;5053990;28;20088;-75
2022/06/30 02:43:10;;;;;;;0.10;0.10;;;17.40;99.90;;;;;;5052285;28;20059;-75
2022/06/30 02:45:36;;;;;;;0.20;0.20;;;17.30;99.90;;;;;;5053424;28;20036;-75
2022/06/30 02:48:02;;;;;;;0.00;0.00;;;17.30;99.90;;;;;;5054195;28;20036;-75
2022/06/30 02:50:28;;;;;;;0.10;0.10;;;17.20;99.90;;;;;;5056032;28;20041;-75
2022/06/30 02:52:54;;;;;;;0.23;0.23;;;17.10;99.90;;;;;;5053369;28;20036;-76
2022/06/30 02:55:21;;;;;;;0.17;0.17;;;17.00;99.90;;;;;;5053354;28;20027;-76
2022/06/30 02:57:47;;;;;;;0.20;0.20;;;17.20;99.90;;;;;;5054448;28;20036;-76
2022/06/30 03:00:13;;;;;;;0.03;0.03;;;17.10;99.90;;;;;;5053594;28;20040;-76
2022/06/30 03:02:40;;;;;;;0.38;0.38;;;17.20;99.90;;;;;;5053631;28;20071;-76
2022/06/30 03:05:07;;;;;;;0.10;0.10;;;17.10;99.90;;;;;;5053944;28;20565;-76
2022/06/30 03:07:33;;;;;;;0.00;0.00;;;17.10;99.90;;;;;;5053547;28;20028;-76
2022/06/30 03:09:59;;;;;;;0.20;0.20;;;17.20;99.90;;;;;;5056169;28;20377;-76
2022/06/30 03:12:24;;;;;;;0.10;0.10;;;17.00;99.90;;;;;;5055459;28;20112;-76
2022/06/30 03:14:50;;;;;;;0.20;0.20;;;17.00;99.90;;;;;;5053658;28;20025;-76
2022/06/30 03:17:16;;;;;;;0.00;0.00;;;16.90;99.90;;;;;;5053519;28;20073;-76
2022/06/30 03:19:42;;;;;;;0.10;0.10;;;16.90;99.90;;;;;;5052949;28;20049;-76
2022/06/30 03:22:08;;;;;;;0.10;0.10;;;16.90;99.90;;;;;;5052899;28;20037;-76
2022/06/30 03:24:33;;;;;;;0.00;0.00;;;16.80;99.90;;;;;;5054812;28;20046;-76
2022/06/30 03:26:59;;;;;;;0.00;0.00;;;16.80;99.90;;;;;;5053657;28;20028;-76
2022/06/30 03:29:25;;;;;;;0.10;0.10;;;16.90;99.90;;;;;;5053992;28;20043;-76
2022/06/30 03:31:50;;;;;;;0.03;0.03;;;16.90;99.90;;;;;;5052680;28;20028;-76
2022/06/30 03:34:16;;;;;;;0.20;0.20;;;16.90;99.90;;;;;;5052878;28;20768;-76
2022/06/30 03:36:42;;;;;;;0.33;0.30;;;16.90;99.90;;;;;;5056129;28;20032;-76
2022/06/30 03:39:08;;;;;;;0.03;0.03;;;16.90;99.90;;;;;;5051586;28;20420;-76
2022/06/30 03:41:33;;;;;;;0.20;0.10;;;17.00;99.90;;;;;;5053110;28;20042;-76
2022/06/30 03:43:59;;;;;;;0.30;0.30;;;16.80;99.90;;;;;;5052909;28;20051;-76
2022/06/30 03:46:25;;;;;;;0.20;0.20;;;16.80;99.90;;;;;;5052805;28;20045;-76
2022/06/30 03:48:51;;;;;;;0.00;0.00;;;16.90;99.90;;;;;;5053631;28;20593;-76
2022/06/30 03:51:16;;;;;;;0.00;0.00;;;17.10;99.90;;;;;;5052491;28;20430;-77
2022/06/30 03:53:42;;;;;;;0.17;0.17;;;17.00;99.90;;;;;;5052903;28;20039;-77
2022/06/30 03:56:08;;;;;;;0.03;0.03;;;16.90;99.90;;;;;;5052884;28;20039;-78
2022/06/30 03:58:34;;;;;;;0.50;0.20;;;16.80;99.90;;;;;;5054058;28;20449;-85
2022/06/30 04:01:00;;;;;;;0.10;0.10;;;16.90;99.90;;;;;;5055082;28;20048;-86
2022/06/30 04:03:26;;;;;;;0.00;0.00;;;16.90;99.90;;;;;;5053710;28;20029;-82
2022/06/30 04:05:52;;;;;;;0.10;0.10;;;16.80;99.90;;;;;;5052475;28;20035;-81
2022/06/30 04:08:18;;;;;;;0.10;0.10;;;16.90;99.90;;;;;;5055901;28;20506;-82
2022/06/30 04:10:43;;;;;;;0.10;0.10;;;16.90;99.90;;;;;;5054561;28;20032;-82
2022/06/30 04:13:09;;;;;;;0.30;0.30;;;16.80;99.90;;;;;;5054525;28;20504;-80
2022/06/30 04:15:35;;;;;;;0.00;0.00;;;16.70;99.90;;;;;;5054419;28;20031;-81
2022/06/30 04:18:01;;;;;;;0.30;0.20;;;16.80;99.90;;;;;;5053586;28;20033;-80
2022/06/30 04:20:27;;;;;;;0.23;0.23;;;16.70;99.90;;;;;;5058280;28;20538;-79
2022/06/30 04:22:53;;;;;;;0.40;0.40;;;16.50;99.90;;;;;;5060101;28;20116;-87
2022/06/30 04:25:20;;;;;;;0.10;0.10;;;16.50;99.90;;;;;;5062523;28;20063;-88
2022/06/30 04:27:51;;;;;;;0.03;0.03;;;16.40;99.90;;;;;;5060541;28;20501;-87
2022/06/30 04:33:03;;;;;;;0.10;0.10;;;16.50;99.90;;;;;;5062983;28;20050;-90
2022/06/30 04:35:29;;;;;;;0.20;0.20;;;16.60;99.90;;;;;;5062840;28;20028;-87
2022/06/30 04:38:01;;;;;;;0.20;0.20;;;16.70;99.90;;;;;;5063061;28;20107;-88
2022/06/30 04:43:12;;;;;;;0.20;0.17;;;16.90;99.90;;;;;;5062570;28;20093;-88
2022/06/30 04:45:37;;;;;;;0.37;0.27;;;16.70;99.90;;;;;;5066471;28;20060;-90
2022/06/30 04:48:04;;;;;;;0.10;0.10;;;16.50;99.90;;;;;;5065765;28;20337;-86
2022/06/30 04:50:29;;;;;;;0.52;0.20;;;16.50;99.90;;;;;;5060616;28;20515;-85
2022/06/30 04:52:55;;;;;;;0.10;0.10;;;16.70;99.90;;;;;;5067428;28;20108;-93
2022/06/30 04:55:21;;;;;;;0.10;0.10;;;16.50;99.90;;;;;;5069796;28;20040;-93
2022/06/30 04:57:47;;;;;;;0.00;0.00;;;16.40;99.90;;;;;;5067686;28;20115;-77
2022/06/30 05:00:14;;;;;;;0.00;0.00;;;16.40;99.90;;;;;;5059412;28;20044;-77
2022/06/30 05:02:39;;;;;;;0.30;0.30;;;16.60;99.90;;;;;;5060766;28;20043;-76
2022/06/30 05:05:05;;;;;;;0.17;0.17;;;16.70;99.90;;;;;;5059508;28;20036;-77
2022/06/30 05:07:31;;;;;;;0.20;0.20;;;16.60;99.90;;;;;;5059526;28;20028;-76
2022/06/30 05:09:57;;;;;;;0.10;0.10;;;16.80;99.90;;;;;;5062003;28;22005;-76
2022/06/30 05:12:22;;;;;;;11.87;1.30;;;16.90;99.90;;;;;;5058535;28;20032;-76
2022/06/30 05:14:48;;;;;;;0.53;0.53;;;16.80;99.90;;;;;;5060509;28;20081;-77
2022/06/30 05:17:14;;;;;;;0.00;0.00;;;16.80;99.90;;;;;;5058794;28;20039;-77
2022/06/30 05:19:40;;;;;;;0.03;0.03;;;16.80;99.90;;;;;;5057296;28;20072;-78
2022/06/30 05:22:05;;;;;;;0.50;0.40;;;16.70;99.90;;;;;;5061705;28;20084;-76
2022/06/30 05:27:16;;;;;;;0.20;0.20;;;16.20;99.90;;;;;;5059087;28;20048;-76
2022/06/30 05:29:41;;;;;;;0.13;0.13;;;16.10;99.90;;;;;;5059029;28;20028;-82
2022/06/30 05:32:08;;;;;;;0.00;0.00;;;16.10;99.90;;;;;;5057688;28;20151;-75
2022/06/30 05:34:34;;;;;;;0.00;0.00;;;15.80;99.90;;;;;;5058444;28;20036;-76
2022/06/30 05:37:00;;;;;;;0.10;0.10;;;15.90;99.90;;;;;;5062236;28;20055;-75
2022/06/30 05:39:26;;;;;;;0.10;0.10;;;15.80;99.90;;;;;;5060142;28;20189;-75
2022/06/30 05:41:51;;;;;;;0.20;0.20;;;15.70;99.90;;;;;;5059402;28;20331;-77
2022/06/30 05:44:17;;;;;;;3.33;1.20;;;15.70;99.90;;;;;;5056757;28;20033;-76
2022/06/30 05:46:43;;;;;;;0.03;0.03;;;15.90;99.90;;;;;;5054537;28;20043;-77
2022/06/30 05:49:09;;;;;;;1.45;1.10;;;15.80;99.90;;;;;;5048583;28;20044;-76
2022/06/30 05:51:35;;;;;;;0.10;0.10;;;15.80;99.90;;;;;;5050785;28;20040;-76
2022/06/30 05:54:01;;;;;;;0.10;0.10;;;15.70;99.90;;;;;;5050067;28;20682;-75
2022/06/30 05:56:27;;;;;;;4.63;1.73;;;15.70;99.90;;;;;;5051078;28;20056;-79
2022/06/30 05:58:53;;;;;;;0.03;0.03;;;15.70;99.90;;;;;;5055200;28;20135;-74
2022/06/30 06:01:19;;;;;;;0.17;0.17;;;15.50;99.90;;;;;;5053845;28;20181;-75
2022/06/30 06:03:45;;;;;;;0.10;0.10;;;15.40;99.90;;;;;;5059637;28;20035;-74
2022/06/30 06:06:10;;;;;;;0.27;0.27;;;15.20;99.90;;;;;;5054013;28;20025;-75
2022/06/30 06:08:36;;;;;;;0.98;0.85;;;15.10;99.90;;;;;;5053956;28;20047;-75
2022/06/30 06:11:02;;;;;;;1.03;0.43;;;15.00;99.90;;;;;;5055384;28;20047;-74
2022/06/30 06:13:28;;;;;;;0.10;0.10;;;15.10;99.90;;;;;;5052347;28;20508;-75
2022/06/30 06:15:53;;;;;;;0.00;0.00;;;15.10;99.90;;;;;;5052337;28;20037;-74
2022/06/30 06:18:19;;;;;;;0.45;0.45;;;15.10;99.90;;;;;;5052736;28;20036;-75
2022/06/30 06:20:45;;;;;;;1.97;1.10;;;15.00;99.90;;;;;;5058576;28;20055;-76
2022/06/30 06:23:11;;;;;;;0.10;0.10;;;15.10;99.90;;;;;;5063896;28;20108;-74
2022/06/30 06:25:37;;;;;;;0.00;0.00;;;15.00;99.90;;;;;;5063259;28;20030;-74
2022/06/30 06:30:47;;;;;;;0.10;0.10;;;15.00;99.90;;;;;;5063366;28;20054;-74
2022/06/30 06:33:13;;;;;;;0.00;0.00;;;14.80;99.90;;;;;;5060204;28;20024;-74
2022/06/30 06:35:39;;;;;;;0.10;0.10;;;14.90;99.90;;;;;;5062143;28;20036;-74
2022/06/30 06:38:04;;;;;;;0.33;0.13;;;14.90;99.90;;;;;;5060872;28;20380;-75
2022/06/30 06:40:30;;;;;;;0.15;0.15;;;14.90;99.90;;;;;;5062115;28;20141;-74
2022/06/30 06:42:56;;;;;;;0.63;0.60;;;14.70;99.90;;;;;;5064226;28;20067;-75
2022/06/30 06:45:21;;;;;;;0.33;0.33;;;14.80;99.90;;;;;;5059200;28;22843;-75
2022/06/30 06:47:47;;;;;;;0.10;0.10;;;14.80;99.90;;;;;;5060463;28;20020;-75
2022/06/30 06:50:13;;;;;;;0.10;0.10;;;14.70;99.90;;;;;;5060664;28;20036;-75
2022/06/30 06:52:39;;;;;;;3.58;1.77;;;14.70;99.90;;;;;;5061388;28;20082;-75
2022/06/30 06:55:06;;;;;;;0.10;0.10;;;14.70;99.90;;;;;;5064486;28;20033;-75
2022/06/30 06:57:35;;;;;;;0.10;0.10;;;14.90;99.90;;;;;;5061500;28;20035;-75
2022/06/30 07:00:04;;;;;;;0.52;0.45;;;15.00;99.90;;;;;;5048157;28;20052;-75
2022/06/30 07:02:30;;;;;;;0.30;0.20;;;14.90;99.90;;;;;;5054115;28;20809;-75
2022/06/30 07:04:55;;;;;;;0.00;0.00;;;14.80;99.90;;;;;;5062298;28;20032;-75
2022/06/30 07:07:21;;;;;;;1.88;1.17;;;14.70;99.90;;;;;;5052626;28;20472;-75
2022/06/30 07:09:47;;;;;;;0.00;0.00;;;15.00;99.90;;;;;;5048072;28;20033;-75
2022/06/30 07:12:12;;;;;;;0.00;0.00;;;15.10;99.90;;;;;;5048453;28;20206;-76
2022/06/30 07:14:38;;;;;;;0.25;0.25;;;15.10;99.90;;;;;;5047403;28;20131;-75
2022/06/30 07:17:04;;;;;;;0.10;0.10;;;15.10;99.90;;;;;;5067334;28;20021;-76
2022/06/30 07:19:30;;;;;;;0.10;0.10;;;15.30;99.90;;;;;;5048032;28;20106;-76
2022/06/30 07:21:56;;;;;;;0.00;0.00;;;15.40;99.90;;;;;;5064230;28;20041;-75
2022/06/30 07:24:21;;;;;;;0.20;0.20;;;15.50;99.90;;;;;;5049323;28;20032;-76
2022/06/30 07:26:47;;;;;;;0.20;0.20;;;15.50;99.90;;;;;;5047854;28;20103;-76
2022/06/30 07:29:13;;;;;;;0.10;0.10;;;15.40;99.90;;;;;;5047932;28;20054;-76
2022/06/30 07:31:38;;;;;;;0.00;0.00;;;15.40;99.90;;;;;;5047809;28;20135;-75
2022/06/30 07:34:04;;;;;;;0.03;0.03;;;15.50;99.90;;;;;;5049512;28;20869;-75
2022/06/30 07:36:30;;;;;;;0.40;0.40;;;15.60;99.90;;;;;;5051972;28;20025;-75
2022/06/30 07:38:55;;;;;;;0.00;0.00;;;15.40;99.90;;;;;;5062645;28;20102;-76
2022/06/30 07:41:22;;;;;;;0.08;0.08;;;15.30;99.90;;;;;;5040606;28;20416;-75
2022/06/30 07:43:48;;;;;;;0.10;0.10;;;15.30;99.90;;;;;;5046163;28;20043;-75
2022/06/30 07:46:14;;;;;;;0.82;0.80;;;15.30;99.90;;;;;;5046912;28;20029;-75
2022/06/30 07:48:40;;;;;;;0.10;0.10;;;15.30;99.90;;;;;;5047846;28;20025;-75
2022/06/30 07:51:06;;;;;;;0.00;0.00;;;15.40;99.90;;;;;;5055973;28;20048;-75
2022/06/30 07:53:32;;;;;;;0.10;0.10;;;15.60;99.90;;;;;;5061687;28;20446;-75
2022/06/30 07:55:58;;;;;;;0.00;0.00;;;15.50;99.90;;;;;;5059931;28;20542;-75
2022/06/30 07:58:24;;;;;;;0.00;0.00;;;15.60;99.90;;;;;;5059104;28;20033;-76
2022/06/30 08:00:49;;;;;;;0.00;0.00;;;15.30;99.90;;;;;;5060032;28;20055;-75
2022/06/30 08:03:15;;;;;;;0.10;0.10;;;15.50;99.90;;;;;;5057913;28;20068;-76
2022/06/30 08:05:41;;;;;;;0.10;0.10;;;15.60;99.90;;;;;;5059756;28;20032;-76
2022/06/30 08:08:07;;;;;;;0.00;0.00;;;15.60;99.90;;;;;;5056452;28;20981;-75
2022/06/30 08:10:32;;;;;;;0.00;0.00;;;15.50;99.90;;;;;;5057663;28;20033;-75
2022/06/30 08:12:58;;;;;;;1.20;0.83;;;15.40;99.90;;;;;;5053537;28;20029;-75
2022/06/30 08:15:24;;;;;;;0.10;0.10;;;15.50;99.90;;;;;;5046976;28;20044;-76
2022/06/30 08:17:49;;;;;;;0.07;0.07;;;15.50;99.90;;;;;;5047029;28;20397;-76
2022/06/30 08:20:15;;;;;;;0.00;0.00;;;15.30;99.90;;;;;;5043958;28;20132;-75
2022/06/30 08:22:41;;;;;;;0.10;0.10;;;15.00;99.90;;;;;;5044915;28;20488;-76
2022/06/30 08:25:07;;;;;;;0.20;0.20;;;15.00;99.90;;;;;;5046004;28;20107;-75
2022/06/30 08:27:32;;;;;;;0.07;0.07;;;15.10;99.90;;;;;;5051361;28;20036;-75
2022/06/30 08:29:58;;;;;;;0.00;0.00;;;15.10;99.90;;;;;;5059136;28;20036;-76
2022/06/30 08:32:24;;;;;;;0.10;0.10;;;15.10;99.90;;;;;;5060696;28;20073;-74
2022/06/30 08:34:50;;;;;;;0.00;0.00;;;15.10;99.90;;;;;;5060584;28;20480;-75
2022/06/30 08:37:15;;;;;;;0.10;0.10;;;15.00;99.90;;;;;;5062418;28;20037;-75
2022/06/30 08:42:26;;;;;;;0.03;0.03;;;15.30;99.90;;;;;;5060844;28;20039;-75
2022/06/30 08:47:37;;;;;;;0.05;0.05;;;15.40;99.90;;;;;;5059981;28;20035;-74
2022/06/30 08:50:06;;;;;;;0.10;0.10;;;15.40;99.90;;;;;;5060288;28;20035;-74
2022/06/30 08:52:33;;;;;;;0.00;0.00;;;15.40;99.90;;;;;;5055231;28;20024;-74
2022/06/30 08:55:00;;;;;;;0.00;0.00;;;15.30;99.90;;;;;;5063624;28;20499;-74
2022/06/30 08:57:27;;;;;;;0.20;0.20;;;15.30;99.90;;;;;;5059701;28;20436;-75
2022/06/30 08:59:53;;;;;;;0.00;0.00;;;15.30;99.90;;;;;;5058769;28;20571;-82
2022/06/30 09:02:19;;;;;;;0.00;0.00;;;15.40;99.90;;;;;;5058515;28;20033;-82
2022/06/30 09:04:45;;;;;;;0.10;0.10;;;15.30;99.90;;;;;;5059046;28;20036;-82
2022/06/30 09:07:11;;;;;;;0.00;0.00;;;15.60;99.90;;;;;;5061618;28;20467;-83
2022/06/30 09:09:38;;;;;;;0.10;0.10;;;15.80;99.90;;;;;;5060077;28;20071;-82
2022/06/30 09:12:16;;;;;;;0.03;0.03;;;16.00;99.90;;;;;;5058501;28;20059;-82
2022/06/30 09:14:46;;;;;;;0.00;0.00;;;15.90;99.90;;;;;;5052010;28;20024;-81
2022/06/30 09:17:17;;;;;;;0.10;0.10;;;16.00;99.90;;;;;;5058839;28;20040;-81
2022/06/30 09:19:52;;;;;;;0.00;0.00;;;16.10;99.90;;;;;;5058444;28;20055;-82
2022/06/30 09:22:19;;;;;;;0.10;0.10;;;16.10;99.90;;;;;;5061326;28;20036;-82
2022/06/30 09:24:44;;;;;;;0.00;0.00;;;16.00;99.90;;;;;;5060165;28;20020;-82
2022/06/30 09:27:19;;;;;;;0.00;0.00;;;15.80;99.90;;;;;;5058624;28;20507;-82
2022/06/30 09:29:49;;;;;;;0.00;0.00;;;16.10;99.90;;;;;;5058659;28;20139;-82
2022/06/30 09:32:15;;;;;;;0.10;0.10;;;16.30;99.90;;;;;;5053200;28;20048;-82
2022/06/30 09:34:43;;;;;;;0.00;0.00;;;16.20;99.90;;;;;;5058664;28;20029;-82
2022/06/30 09:37:23;;;;;;;0.10;0.10;;;16.10;99.90;;;;;;5061413;28;20028;-82
2022/06/30 09:39:51;;;;;;;0.00;0.00;;;16.10;99.90;;;;;;5060470;28;20048;-82
2022/06/30 09:42:43;;;;;;;0.15;0.15;;;16.20;99.90;;;;;;5058298;28;20515;-83
2022/06/30 09:45:14;;;;;;;0.10;0.10;;;16.50;99.90;;;;;;5058630;28;20508;-82
2022/06/30 09:47:54;;;;;;;0.00;0.00;;;16.70;99.90;;;;;;5058341;28;20033;-80
2022/06/30 09:50:21;;;;;;;0.08;0.08;;;16.40;99.90;;;;;;5049382;28;20064;-81
2022/06/30 09:53:05;;;;;;;0.15;0.15;;;16.40;99.90;;;;;;5058529;28;20060;-81
2022/06/30 09:55:45;;;;;;;0.47;0.47;;;16.20;99.90;;;;;;5060887;28;20036;-81
2022/06/30 09:58:32;;;;;;;0.00;0.00;;;16.20;99.90;;;;;;5058787;28;20048;-81
2022/06/30 10:00:59;;;;;;;0.20;0.20;;;16.30;99.90;;;;;;5060030;28;20506;-80
2022/06/30 10:03:25;;;;;;;0.00;0.00;;;16.40;99.90;;;;;;5060712;28;20033;-80
2022/06/30 10:06:16;;;;;;;0.00;0.00;;;16.50;99.90;;;;;;5058077;28;20040;-81
2022/06/30 10:08:43;;;;;;;0.40;0.30;;;16.50;99.90;;;;;;5057108;28;20078;-81
2022/06/30 10:11:09;;;;;;;0.00;0.00;;;16.60;99.90;;;;;;5057627;28;20024;-80
2022/06/30 10:13:43;;;;;;;0.10;0.10;;;16.40;99.90;;;;;;5046572;28;20156;-81
2022/06/30 10:16:09;;;;;;;0.05;0.05;;;16.20;99.90;;;;;;5055116;28;20555;-80
2022/06/30 10:18:39;;;;;;;0.00;0.00;;;16.40;99.90;;;;;;5075441;28;20058;-81
2022/06/30 10:21:05;;;;;;;0.00;0.00;;;16.60;99.90;;;;;;5058773;28;20045;-81
2022/06/30 10:23:31;;;;;;;0.00;0.00;;;16.50;99.90;;;;;;5058966;28;20162;-81
2022/06/30 10:25:57;;;;;;;0.00;0.00;;;16.50;99.90;;;;;;5059402;28;20029;-80
2022/06/30 10:28:25;;;;;;;0.00;0.00;;;16.60;99.90;;;;;;5055573;28;20025;-81
2022/06/30 10:31:16;;;;;;;0.93;0.85;;;16.50;99.90;;;;;;5051751;28;20033;-81
2022/06/30 10:34:22;;;;;;;3.15;0.08;;;16.30;99.90;;;;;;5044278;28;20427;-80
2022/06/30 10:36:58;;;;;;;0.00;0.00;;;15.90;99.90;;;;;;5037065;28;20386;-80
2022/06/30 10:39:43;;;;;;;;;;;15.90;99.90;;;;;;5062803;28;20124;-81
2022/06/30 10:42:08;;;;;;;0.00;0.00;;;16.00;99.90;;;;;;5057165;28;19912;-80
2022/06/30 10:44:34;;;;;;;0.00;0.00;;;15.80;99.90;;;;;;5057757;28;20377;-90
2022/06/30 10:47:04;;;;;;;0.00;0.00;;;15.90;99.90;;;;;;5052212;28;20403;-81
2022/06/30 10:49:30;;;;;;;0.00;0.00;;;15.90;99.90;;;;;;5057678;28;20036;-82
2022/06/30 10:52:16;;;;;;;0.47;0.13;;;16.00;99.90;;;;;;5046365;28;20025;-83
2022/06/30 10:54:44;;;;;;;;;;;15.90;99.90;;;;;;5048799;28;20033;-81
2022/06/30 10:57:12;;;;;;;1.20;0.20;;;15.60;99.90;;;;;;5050963;28;19942;-84
2022/06/30 10:59:41;;;;;;;0.00;0.00;;;15.90;99.90;;;;;;5076148;28;20444;-81
2022/06/30 11:02:07;;;;;;;0.00;0.00;;;15.80;99.90;;;;;;5049076;28;20476;-82
2022/06/30 11:04:53;;;;;;;0.00;0.00;;;15.70;99.90;;;;;;5048259;28;20031;-81
2022/06/30 11:07:21;;;;;;;0.10;0.10;;;15.60;99.90;;;;;;5024762;28;20497;-83
2022/06/30 11:09:54;;;;;;;0.00;0.00;;;15.90;99.90;;;;;;5035285;28;20029;-83
2022/06/30 11:12:41;;;;;;;0.10;0.10;;;15.90;99.90;;;;;;5035113;28;20135;-82
2022/06/30 11:15:06;;;;;;;;;;;15.70;99.90;;;;;;5027767;28;20548;-85
2022/06/30 11:17:37;;;;;;;0.00;0.00;;;15.60;99.90;;;;;;5023854;28;19924;-82
2022/06/30 11:20:05;;;;;;;0.00;0.00;;;15.50;99.90;;;;;;5023864;28;20072;-84
2022/06/30 11:22:32;;;;;;;0.00;0.00;;;15.50;99.90;;;;;;5038810;28;20033;-84
2022/06/30 11:25:01;;;;;;;0.00;0.00;;;15.50;99.90;;;;;;5019655;28;20037;-84
2022/06/30 11:27:28;;;;;;;0.05;0.05;;;15.40;99.90;;;;;;5014986;28;20039;-85
2022/06/30 11:30:07;;;;;;;0.00;0.00;;;15.60;99.90;;;;;;5036369;28;20042;-84
2022/06/30 11:32:33;;;;;;;0.10;0.10;;;15.70;99.90;;;;;;5033571;28;20041;-86
2022/06/30 11:34:59;;;;;;;0.00;0.00;;;15.70;99.90;;;;;;5034133;28;20051;-85
2022/06/30 11:37:29;;;;;;;0.00;0.00;;;15.70;99.90;;;;;;5037222;28;20045;-84
2022/06/30 11:40:05;;;;;;;0.10;0.10;;;15.90;99.90;;;;;;5032623;28;20101;-84
2022/06/30 11:42:31;;;;;;;0.00;0.00;;;15.90;99.90;;;;;;5026159;28;20571;-84
2022/06/30 11:44:57;;;;;;;0.10;0.10;;;16.00;99.90;;;;;;5051569;28;20121;-84
2022/06/30 11:47:24;;;;;;;0.00;0.00;;;16.10;99.90;;;;;;5059706;28;20119;-84
2022/06/30 11:49:55;;;;;;;0.00;0.00;;;16.20;99.90;;;;;;5060625;28;20029;-85
2022/06/30 11:52:37;;;;;;;0.00;0.00;;;16.10;99.90;;;;;;5061909;28;20024;-85
2022/06/30 11:55:10;;;;;;;0.05;0.05;;;16.20;99.90;;;;;;5063247;28;20029;-84
2022/06/30 11:57:43;;;;;;;0.15;0.15;;;16.20;99.90;;;;;;5055703;28;20060;-85
2022/06/30 12:00:15;;;;;;;0.00;0.00;;;16.30;99.90;;;;;;5056796;28;20665;-77
2022/06/30 12:02:43;;;;;;;0.00;0.00;;;16.40;99.90;;;;;;5054736;28;20028;-76
2022/06/30 12:05:11;;;;;;;0.00;0.00;;;16.30;99.90;;;;;;5052998;28;20515;-76
2022/06/30 12:07:38;;;;;;;0.00;0.00;;;16.20;99.90;;;;;;5057684;28;20032;-76
2022/06/30 12:10:06;;;;;;;0.00;0.00;;;16.10;99.90;;;;;;5063653;28;20115;-76
2022/06/30 12:12:33;;;;;;;0.00;0.00;;;16.30;99.90;;;;;;5060851;28;20036;-76
2022/06/30 12:15:01;;;;;;;0.00;0.00;;;16.10;99.90;;;;;;5061876;28;20113;-76
2022/06/30 12:17:32;;;;;;;0.00;0.00;;;16.40;99.90;;;;;;5059936;28;20025;-77
2022/06/30 12:19:58;;;;;;;0.00;0.00;;;16.40;99.90;;;;;;5075148;28;20072;-76
2022/06/30 12:22:24;;;;;;;0.00;0.00;;;16.30;99.90;;;;;;5056130;28;20091;-76
2022/06/30 12:24:51;;;;;;;0.00;0.00;;;16.40;99.90;;;;;;5061243;28;20503;-77
2022/06/30 12:27:27;;;;;;;0.00;0.00;;;16.10;99.90;;;;;;5059132;28;20112;-77
2022/06/30 12:30:03;;;;;;;0.10;0.10;;;16.10;99.90;;;;;;5055502;28;20040;-80
2022/06/30 12:32:29;;;;;;;0.00;0.00;;;16.10;99.90;;;;;;5058931;28;20539;-79
2022/06/30 12:35:00;;;;;;;0.00;0.00;;;16.20;99.90;;;;;;5057750;28;20812;-80
2022/06/30 12:37:47;;;;;;;0.00;0.00;;;16.20;99.90;;;;;;5057589;28;20274;-80
2022/06/30 12:40:15;;;;;;;0.00;0.00;;;16.10;99.90;;;;;;5058986;28;20044;-80
2022/06/30 12:42:45;;;;;;;0.00;0.00;;;16.00;99.90;;;;;;5060464;28;20028;-78
2022/06/30 12:45:41;;;;;;;0.00;0.00;;;16.00;99.90;;;;;;5059620;28;21044;-78
2022/06/30 12:48:07;;;;;;;0.00;0.00;;;16.10;99.90;;;;;;5059294;28;20453;-79
2022/06/30 12:50:35;;;;;;;0.00;0.00;;;16.10;99.90;;;;;;5059894;28;20034;-79
2022/06/30 12:53:19;;;;;;;0.00;0.00;;;16.20;99.90;;;;;;5059784;28;20028;-79
2022/06/30 12:56:04;;;;;;;0.00;0.00;;;16.20;99.90;;;;;;5056031;28;20033;-78
2022/06/30 12:58:49;;;;;;;0.00;0.00;;;16.10;99.90;;;;;;5058868;28;20033;-83
2022/06/30 13:01:18;;;;;;;0.00;0.00;;;16.10;99.90;;;;;;5058761;28;20036;-83
2022/06/30 13:03:56;;;;;;;0.00;0.00;;;16.10;99.90;;;;;;5059884;28;20033;-84
2022/06/30 13:06:23;;;;;;;0.00;0.00;;;16.20;99.90;;;;;;5058050;28;20037;-83
2022/06/30 13:08:49;;;;;;;0.00;0.00;;;16.40;99.90;;;;;;5058740;28;20035;-83
2022/06/30 13:11:23;;;;;;;0.10;0.10;;;16.60;99.90;;;;;;5058956;28;20095;-83
2022/06/30 13:13:49;;;;;;;0.00;0.00;;;16.80;99.90;;;;;;5058946;28;20037;-83